createdAt,value
2022-10-19T00:01:10.695Z,12.49
2022-10-19T00:03:39.061Z,12.49
2022-10-19T00:06:14.665Z,12.42
2022-10-19T00:08:42.991Z,12.50
2022-10-19T00:11:11.376Z,12.52
2022-10-19T00:13:39.592Z,12.52
2022-10-19T00:16:13.568Z,12.84
2022-10-19T00:18:43.468Z,12.37
2022-10-19T00:21:13.138Z,12.78
2022-10-19T00:23:43.679Z,12.87
2022-10-19T00:26:11.968Z,12.64
2022-10-19T00:28:40.167Z,12.59
2022-10-19T00:31:12.532Z,12.69
2022-10-19T00:33:42.567Z,12.33
2022-10-19T00:36:16.340Z,12.30
2022-10-19T00:38:44.559Z,12.31
2022-10-19T00:41:12.740Z,12.15
2022-10-19T00:43:55.306Z,12.45
2022-10-19T00:46:23.507Z,12.57
2022-10-19T00:48:54.511Z,12.38
2022-10-19T00:51:22.739Z,12.22
2022-10-19T00:53:50.859Z,12.41
2022-10-19T00:56:19.153Z,12.39
2022-10-19T00:58:47.454Z,12.02
2022-10-19T01:01:18.714Z,12.15
2022-10-19T01:03:47.114Z,12.31
2022-10-19T01:06:18.198Z,12.28
2022-10-19T01:08:46.444Z,12.22
2022-10-19T01:11:24.827Z,12.21
2022-10-19T01:13:57.473Z,12.24
2022-10-19T01:16:32.804Z,12.34
2022-10-19T01:19:04.567Z,12.20
2022-10-19T01:21:37.888Z,12.56
2022-10-19T01:24:26.624Z,12.59
2022-10-19T01:27:13.638Z,12.31
2022-10-19T01:29:52.955Z,11.96
2022-10-19T01:32:24.799Z,11.89
2022-10-19T01:34:58.792Z,11.59
2022-10-19T01:37:33.505Z,11.51
2022-10-19T01:40:05.518Z,11.34
2022-10-19T01:42:37.484Z,11.42
2022-10-19T01:45:11.662Z,11.95
2022-10-19T01:47:43.166Z,11.77
2022-10-19T01:50:14.491Z,11.74
2022-10-19T01:52:43.363Z,11.83
2022-10-19T01:55:15.231Z,11.56
2022-10-19T01:57:47.583Z,10.99
2022-10-19T02:00:18.157Z,10.89
2022-10-19T02:02:47.893Z,10.98
2022-10-19T02:05:18.391Z,10.70
2022-10-19T02:07:48.922Z,10.94
2022-10-19T02:10:17.300Z,11.27
2022-10-19T02:12:45.749Z,11.26
2022-10-19T02:15:16.025Z,10.95
2022-10-19T02:17:48.057Z,10.87
2022-10-19T02:20:17.158Z,11.12
2022-10-19T02:22:45.319Z,10.83
2022-10-19T02:25:14.162Z,11.17
2022-10-19T02:27:43.148Z,10.85
2022-10-19T02:30:12.190Z,10.19
2022-10-19T02:32:40.485Z,10.83
2022-10-19T02:35:11.242Z,11.36
2022-10-19T02:37:39.495Z,11.44
2022-10-19T02:40:08.478Z,12.14
2022-10-19T02:42:38.747Z,12.49
2022-10-19T02:45:09.998Z,12.40
2022-10-19T02:47:40.223Z,12.34
2022-10-19T02:50:10.798Z,12.41
2022-10-19T02:52:38.943Z,12.21
2022-10-19T02:55:07.586Z,12.42
2022-10-19T02:57:36.266Z,11.87
2022-10-19T03:00:05.767Z,12.11
2022-10-19T03:02:33.850Z,12.34
2022-10-19T03:05:02.030Z,12.47
2022-10-19T03:07:32.985Z,12.30
2022-10-19T03:10:03.289Z,12.14
2022-10-19T03:12:34.556Z,12.57
2022-10-19T03:15:02.770Z,12.10
2022-10-19T03:17:31.965Z,12.08
2022-10-19T03:20:00.500Z,11.87
2022-10-19T03:22:28.566Z,11.71
2022-10-19T03:25:00.392Z,11.62
2022-10-19T03:27:28.663Z,11.72
2022-10-19T03:29:56.768Z,11.54
2022-10-19T03:32:25.003Z,11.41
2022-10-19T03:34:53.119Z,11.19
2022-10-19T03:37:21.371Z,11.03
2022-10-19T03:39:49.575Z,10.89
2022-10-19T03:42:19.098Z,10.70
2022-10-19T03:44:47.271Z,10.51
2022-10-19T03:47:15.343Z,10.57
2022-10-19T03:49:43.755Z,11.08
2022-10-19T03:52:11.822Z,11.13
2022-10-19T03:54:40.009Z,11.57
2022-10-19T03:57:08.101Z,11.35
2022-10-19T03:59:37.636Z,11.13
2022-10-19T04:02:05.741Z,11.05
2022-10-19T04:04:33.851Z,11.03
2022-10-19T04:07:02.068Z,11.17
2022-10-19T04:09:30.260Z,11.20
2022-10-19T04:11:58.335Z,11.16
2022-10-19T04:14:32.206Z,11.53
2022-10-19T04:17:02.643Z,11.38
2022-10-19T04:19:35.237Z,11.55
2022-10-19T04:22:03.547Z,11.52
2022-10-19T04:24:31.626Z,11.54
2022-10-19T04:26:59.779Z,11.69
2022-10-19T04:29:29.901Z,11.72
2022-10-19T04:31:59.233Z,11.66
2022-10-19T04:34:28.823Z,11.81
2022-10-19T04:36:59.590Z,11.98
2022-10-19T04:39:28.043Z,11.92
2022-10-19T04:41:56.427Z,11.81
2022-10-19T04:46:57.876Z,11.22
2022-10-19T04:49:26.120Z,11.44
2022-10-19T04:51:55.740Z,11.78
2022-10-19T04:54:24.049Z,12.08
2022-10-19T04:56:53.952Z,12.02
2022-10-19T04:59:22.392Z,11.56
2022-10-19T05:01:50.518Z,11.17
2022-10-19T05:04:18.773Z,11.60
2022-10-19T05:06:47.010Z,11.50
2022-10-19T05:09:16.698Z,11.19
2022-10-19T05:11:45.001Z,10.64
2022-10-19T05:14:13.063Z,11.18
2022-10-19T05:16:41.198Z,11.51
2022-10-19T05:19:13.907Z,11.49
2022-10-19T05:21:42.111Z,10.94
2022-10-19T05:24:13.219Z,11.04
2022-10-19T05:26:46.017Z,11.02
2022-10-19T05:29:14.794Z,11.47
2022-10-19T05:31:43.059Z,11.62
2022-10-19T05:34:11.253Z,10.75
2022-10-19T05:36:40.948Z,10.89
2022-10-19T05:39:10.213Z,11.03
2022-10-19T05:41:38.374Z,11.84
2022-10-19T05:44:08.203Z,12.24
2022-10-19T05:46:36.368Z,11.55
2022-10-19T05:49:04.579Z,11.99
2022-10-19T05:51:35.516Z,12.09
2022-10-19T05:54:04.036Z,11.50
2022-10-19T05:56:32.974Z,12.05
2022-10-19T05:59:02.443Z,11.54
2022-10-19T06:01:32.368Z,11.47
2022-10-19T06:04:01.029Z,10.76
2022-10-19T06:06:29.343Z,10.84
2022-10-19T06:08:59.147Z,10.99
2022-10-19T06:11:28.252Z,11.35
2022-10-19T06:13:57.678Z,11.55
2022-10-19T06:16:26.654Z,11.95
2022-10-19T06:18:56.577Z,12.52
2022-10-19T06:21:26.272Z,12.56
2022-10-19T06:23:54.938Z,12.56
2022-10-19T06:26:25.155Z,12.38
2022-10-19T06:28:55.951Z,12.24
2022-10-19T06:31:24.077Z,12.34
2022-10-19T06:33:52.306Z,12.36
2022-10-19T06:36:23.204Z,12.76
2022-10-19T06:38:53.253Z,11.85
2022-10-19T06:41:24.995Z,10.56
2022-10-19T06:43:54.286Z,11.50
2022-10-19T06:46:23.616Z,12.00
2022-10-19T06:48:52.706Z,11.96
2022-10-19T06:51:22.738Z,11.34
2022-10-19T06:53:54.319Z,10.86
2022-10-19T06:56:25.811Z,11.67
2022-10-19T06:58:53.990Z,11.33
2022-10-19T07:01:22.221Z,11.74
2022-10-19T07:03:51.866Z,12.00
2022-10-19T07:06:20.061Z,12.60
2022-10-19T07:08:49.766Z,12.23
2022-10-19T07:11:19.092Z,12.46
2022-10-19T07:13:47.255Z,11.61
2022-10-19T07:16:20.634Z,12.03
2022-10-19T07:18:50.346Z,11.90
2022-10-19T07:21:18.722Z,10.85
2022-10-19T07:23:48.240Z,11.44
2022-10-19T07:26:19.552Z,11.76
2022-10-19T07:28:49.125Z,11.53
2022-10-19T07:31:20.342Z,11.25
2022-10-19T07:33:48.589Z,11.01
2022-10-19T07:36:16.808Z,11.06
2022-10-19T07:38:44.971Z,10.72
2022-10-19T07:41:25.197Z,11.11
2022-10-19T07:44:00.279Z,10.77
2022-10-19T07:47:54.820Z,10.66
2022-10-19T07:50:25.416Z,10.51
2022-10-19T07:53:04.808Z,10.94
2022-10-19T07:55:35.403Z,10.35
2022-10-19T07:58:03.848Z,10.96
2022-10-19T08:00:32.630Z,11.55
2022-10-19T08:05:51.569Z,11.24
2022-10-19T08:08:20.017Z,10.41
2022-10-19T08:10:48.479Z,10.86
2022-10-19T08:13:16.930Z,11.46
2022-10-19T08:15:46.488Z,11.52
2022-10-19T08:18:16.944Z,11.58
2022-10-19T08:20:46.087Z,10.79
2022-10-19T08:23:14.729Z,10.79
2022-10-19T08:25:43.250Z,10.88
2022-10-19T08:28:12.125Z,11.15
2022-10-19T08:30:40.756Z,10.94
2022-10-19T08:33:12.748Z,11.39
2022-10-19T08:35:42.717Z,11.37
2022-10-19T08:38:11.195Z,11.11
2022-10-19T08:40:39.781Z,10.95
2022-10-19T08:43:15.007Z,10.89
2022-10-19T08:45:44.363Z,11.22
2022-10-19T08:48:25.284Z,11.22
2022-10-19T08:50:55.737Z,11.24
2022-10-19T08:53:33.024Z,10.89
2022-10-19T08:56:22.190Z,11.09
2022-10-19T08:59:14.732Z,11.03
2022-10-19T09:01:49.858Z,10.66
2022-10-19T09:04:23.963Z,11.31
2022-10-19T09:07:22.149Z,11.71
2022-10-19T09:09:57.576Z,12.18
2022-10-19T09:12:46.424Z,11.80
2022-10-19T09:15:20.375Z,12.04
2022-10-19T09:17:49.138Z,11.40
2022-10-19T09:20:21.128Z,11.93
2022-10-19T09:23:01.663Z,11.66
2022-10-19T09:25:32.036Z,12.58
2022-10-19T09:28:14.056Z,12.03
2022-10-19T09:30:44.413Z,11.79
2022-10-19T09:33:20.471Z,11.84
2022-10-19T09:35:51.056Z,12.22
2022-10-19T09:38:25.388Z,12.41
2022-10-19T09:40:53.922Z,12.47
2022-10-19T09:43:23.111Z,11.80
2022-10-19T09:45:55.199Z,12.06
2022-10-19T09:48:30.465Z,11.81
2022-10-19T09:51:01.654Z,11.74
2022-10-19T09:53:31.847Z,11.79
2022-10-19T09:56:04.549Z,11.73
2022-10-19T09:58:33.455Z,11.39
2022-10-19T10:01:03.324Z,10.32
2022-10-19T10:03:35.380Z,10.44
2022-10-19T10:06:07.718Z,10.56
2022-10-19T10:08:40.484Z,10.60
2022-10-19T10:11:13.838Z,10.28
2022-10-19T10:13:45.330Z,10.30
2022-10-19T10:16:17.940Z,10.63
2022-10-19T10:18:56.048Z,10.78
2022-10-19T10:21:26.436Z,10.86
2022-10-19T10:24:06.105Z,11.07
2022-10-19T10:26:40.050Z,10.68
2022-10-19T10:29:19.802Z,10.70
2022-10-19T10:31:50.732Z,10.31
2022-10-19T10:34:45.571Z,10.50
2022-10-19T10:37:22.972Z,10.68
2022-10-19T10:39:57.921Z,10.71
2022-10-19T10:42:32.356Z,10.96
2022-10-19T10:45:01.416Z,10.83
2022-10-19T10:47:31.543Z,10.89
2022-10-19T10:50:02.955Z,10.52
2022-10-19T10:52:33.128Z,11.05
2022-10-19T10:55:15.703Z,11.06
2022-10-19T10:57:48.252Z,11.54
2022-10-19T11:00:19.149Z,11.74
2022-10-19T11:02:53.058Z,12.26
2022-10-19T11:05:26.665Z,11.70
2022-10-19T11:08:00.291Z,11.37
2022-10-19T11:10:35.453Z,11.49
2022-10-19T11:13:11.878Z,11.55
2022-10-19T11:15:48.774Z,12.05
2022-10-19T11:18:21.675Z,11.71
2022-10-19T11:21:00.477Z,12.37
2022-10-19T11:23:37.702Z,13.13
2022-10-19T11:26:19.803Z,11.96
2022-10-19T11:29:03.945Z,11.97
2022-10-19T11:31:45.838Z,12.07
2022-10-19T11:34:33.770Z,11.39
2022-10-19T11:37:15.967Z,11.66
2022-10-19T11:39:55.573Z,11.34
2022-10-19T11:42:38.012Z,11.69
2022-10-19T11:45:17.223Z,11.82
2022-10-19T11:48:00.181Z,11.76
2022-10-19T11:50:37.651Z,11.95
2022-10-19T11:53:13.560Z,12.33
2022-10-19T11:55:51.360Z,12.50
2022-10-19T11:58:53.448Z,12.55
2022-10-19T12:01:34.065Z,12.18
2022-10-19T12:04:17.684Z,12.84
2022-10-19T12:06:56.951Z,12.76
2022-10-19T12:09:35.276Z,12.14
2022-10-19T12:12:19.928Z,11.95
2022-10-19T12:14:53.181Z,12.00
2022-10-19T12:17:29.387Z,12.28
2022-10-19T12:20:02.938Z,11.49
2022-10-19T12:22:33.495Z,11.24
2022-10-19T12:25:03.423Z,11.04
2022-10-19T12:27:37.168Z,11.18
2022-10-19T12:30:14.518Z,10.99
2022-10-19T12:32:54.532Z,11.50
2022-10-19T12:35:34.968Z,11.49
2022-10-19T12:38:08.574Z,11.02
2022-10-19T12:40:44.727Z,11.50
2022-10-19T12:43:18.449Z,11.89
2022-10-19T12:45:55.954Z,11.64
2022-10-19T12:48:27.663Z,11.36
2022-10-19T12:51:12.465Z,11.97
2022-10-19T12:53:44.500Z,11.68
2022-10-19T12:56:24.133Z,12.03
2022-10-19T12:59:00.130Z,11.92
2022-10-19T13:01:44.506Z,11.88
2022-10-19T13:04:15.436Z,11.09
2022-10-19T13:06:46.339Z,10.79
2022-10-19T13:09:25.877Z,11.03
2022-10-19T13:12:29.279Z,11.22
2022-10-19T13:14:59.193Z,11.41
2022-10-19T13:17:46.412Z,11.71
2022-10-19T13:20:49.581Z,11.38
2022-10-19T13:23:42.199Z,11.54
2022-10-19T13:26:34.238Z,11.32
2022-10-19T13:29:03.378Z,11.73
2022-10-19T13:31:33.211Z,11.38
2022-10-19T13:34:11.815Z,11.35
2022-10-19T13:36:40.503Z,10.67
2022-10-19T13:39:16.059Z,10.98
2022-10-19T13:41:52.829Z,11.03
2022-10-19T13:44:31.069Z,11.26
2022-10-19T13:47:25.061Z,11.57
2022-10-19T13:50:17.109Z,10.76
2022-10-19T13:53:09.082Z,11.20
2022-10-19T13:56:28.722Z,10.96
2022-10-19T13:59:31.845Z,11.21
2022-10-19T14:02:37.878Z,11.36
2022-10-19T14:05:25.236Z,10.77
2022-10-19T14:08:09.993Z,11.20
2022-10-19T14:13:27.499Z,10.48
2022-10-19T14:15:58.696Z,10.35
2022-10-19T14:18:29.195Z,10.98
2022-10-19T14:21:00.919Z,11.13
2022-10-19T14:23:31.239Z,10.37
2022-10-19T14:26:01.981Z,10.11
2022-10-19T14:28:31.354Z,10.81
2022-10-19T14:31:01.901Z,10.98
2022-10-19T14:33:33.609Z,10.76
2022-10-19T14:36:04.042Z,10.64
2022-10-19T14:38:36.377Z,10.82
2022-10-19T14:41:06.117Z,10.51
2022-10-19T14:43:36.148Z,9.98
2022-10-19T14:46:12.547Z,10.45
2022-10-19T14:48:42.629Z,10.38
2022-10-19T14:51:24.549Z,10.44
2022-10-19T14:53:57.439Z,10.48
2022-10-19T14:56:34.951Z,10.28
2022-10-19T14:59:07.420Z,9.89
2022-10-19T15:01:36.878Z,10.08
2022-10-19T15:04:06.058Z,10.31
2022-10-19T15:06:42.438Z,10.67
2022-10-19T15:09:36.897Z,10.96
2022-10-19T15:12:18.086Z,10.41
2022-10-19T15:14:47.429Z,10.15
2022-10-19T15:17:27.647Z,10.32
2022-10-19T15:19:58.528Z,10.01
2022-10-19T15:22:40.888Z,10.38
2022-10-19T15:25:28.817Z,10.55
2022-10-19T15:27:57.847Z,10.24
2022-10-19T15:30:29.340Z,10.39
2022-10-19T15:33:11.604Z,10.34
2022-10-19T15:35:42.067Z,10.81
2022-10-19T15:38:20.663Z,10.78
2022-10-19T15:40:49.581Z,10.29
2022-10-19T15:43:50.920Z,11.09
2022-10-19T15:46:26.040Z,10.42
2022-10-19T15:48:55.715Z,10.57
2022-10-19T15:51:55.065Z,10.50
2022-10-19T15:54:24.979Z,10.19
2022-10-19T15:56:55.653Z,10.39
2022-10-19T15:59:24.449Z,10.33
2022-10-19T16:01:56.117Z,9.70
2022-10-19T16:04:24.873Z,9.80
2022-10-19T16:06:53.442Z,9.61
2022-10-19T16:09:25.852Z,9.69
2022-10-19T16:11:57.181Z,9.60
2022-10-19T16:14:26.676Z,9.55
2022-10-19T16:17:04.207Z,9.08
2022-10-19T16:19:32.809Z,9.47
2022-10-19T16:22:01.353Z,9.51
2022-10-19T16:24:31.325Z,9.29
2022-10-19T16:26:59.993Z,9.33
2022-10-19T16:29:29.138Z,9.45
2022-10-19T16:31:57.797Z,9.39
2022-10-19T16:34:26.451Z,9.85
2022-10-19T16:36:55.021Z,9.57
2022-10-19T16:39:25.630Z,9.78
2022-10-19T16:41:55.692Z,9.37
2022-10-19T16:44:24.283Z,9.61
2022-10-19T16:46:52.783Z,9.60
2022-10-19T16:49:21.309Z,9.36
2022-10-19T16:51:52.008Z,9.78
2022-10-19T16:54:23.459Z,9.33
2022-10-19T16:56:51.907Z,9.96
2022-10-19T16:59:21.994Z,9.77
2022-10-19T17:01:50.760Z,9.85
2022-10-19T17:04:19.287Z,10.17
2022-10-19T17:06:48.133Z,9.94
2022-10-19T17:12:09.508Z,9.53
2022-10-19T17:14:42.254Z,9.77
2022-10-19T17:17:12.093Z,10.15
2022-10-19T17:19:40.866Z,10.22
2022-10-19T17:22:09.585Z,9.98
2022-10-19T17:24:39.449Z,10.54
2022-10-19T17:27:10.931Z,10.42
2022-10-19T17:29:41.103Z,9.85
2022-10-19T17:32:09.921Z,9.94
2022-10-19T17:34:38.520Z,10.36
2022-10-19T17:37:07.192Z,10.17
2022-10-19T17:39:38.815Z,10.20
2022-10-19T17:42:07.569Z,9.49
2022-10-19T17:44:36.167Z,10.15
2022-10-19T17:47:06.712Z,9.85
2022-10-19T17:49:36.017Z,9.57
2022-10-19T17:52:08.029Z,9.38
2022-10-19T17:54:43.719Z,9.67
2022-10-19T17:57:25.853Z,9.47
2022-10-19T17:59:55.723Z,9.57
2022-10-19T18:02:26.485Z,9.29
2022-10-19T18:04:55.495Z,9.08
2022-10-19T18:07:26.583Z,9.08
2022-10-19T18:09:55.541Z,9.32
2022-10-19T18:12:26.935Z,9.40
2022-10-19T18:14:56.468Z,9.25
2022-10-19T18:17:27.867Z,9.72
2022-10-19T18:19:57.373Z,9.67
2022-10-19T18:22:26.545Z,9.43
2022-10-19T18:24:55.742Z,9.49
2022-10-19T18:27:24.779Z,9.41
2022-10-19T18:29:54.067Z,9.32
2022-10-19T18:32:23.427Z,9.57
2022-10-19T18:34:56.213Z,9.03
2022-10-19T18:37:28.382Z,9.35
2022-10-19T18:40:00.861Z,9.65
2022-10-19T18:42:33.833Z,9.51
2022-10-19T18:45:03.453Z,9.25
2022-10-19T18:47:32.690Z,9.54
2022-10-19T18:50:03.219Z,9.15
2022-10-19T18:52:36.425Z,9.50
2022-10-19T18:55:09.050Z,9.61
2022-10-19T18:57:39.160Z,9.74
2022-10-19T19:00:12.111Z,9.63
2022-10-19T19:02:46.697Z,9.42
2022-10-19T19:05:17.979Z,9.36
2022-10-19T19:07:46.917Z,9.28
2022-10-19T19:10:15.941Z,9.25
2022-10-19T19:12:44.643Z,9.66
2022-10-19T19:15:15.671Z,10.02
2022-10-19T19:17:44.451Z,9.61
2022-10-19T19:20:13.300Z,9.71
2022-10-19T19:22:43.324Z,9.21
2022-10-19T19:25:11.961Z,9.27
2022-10-19T19:27:40.442Z,9.46
2022-10-19T19:30:11.253Z,9.19
2022-10-19T19:32:39.821Z,9.41
2022-10-19T19:35:08.636Z,9.88
2022-10-19T19:37:37.643Z,9.74
2022-10-19T19:40:09.377Z,9.52
2022-10-19T19:42:37.905Z,9.51
2022-10-19T19:45:07.139Z,9.25
2022-10-19T19:47:35.869Z,9.58
2022-10-19T19:50:04.833Z,8.76
2022-10-19T19:52:40.239Z,9.06
2022-10-19T19:55:11.025Z,9.58
2022-10-19T19:57:39.625Z,9.33
2022-10-19T20:00:09.510Z,9.40
2022-10-19T20:02:40.711Z,8.90
2022-10-19T20:05:10.181Z,9.13
2022-10-19T20:07:38.813Z,9.22
2022-10-19T20:10:08.190Z,9.53
2022-10-19T20:12:38.055Z,8.72
2022-10-19T20:15:08.034Z,9.05
2022-10-19T20:17:36.855Z,9.18
2022-10-19T20:20:06.391Z,9.28
2022-10-19T20:22:35.123Z,9.23
2022-10-19T20:25:03.348Z,9.93
2022-10-19T20:27:32.232Z,9.55
2022-10-19T20:30:02.159Z,8.98
2022-10-19T20:32:31.973Z,9.07
2022-10-19T20:35:00.428Z,9.33
2022-10-19T20:37:30.301Z,9.27
2022-10-19T20:39:58.768Z,8.90
2022-10-19T20:42:27.158Z,9.54
2022-10-19T20:44:56.495Z,9.48
2022-10-19T20:47:26.425Z,9.20
2022-10-19T20:49:54.903Z,9.48
2022-10-19T20:52:24.448Z,9.15
2022-10-19T20:54:52.913Z,9.06
2022-10-19T20:57:21.667Z,8.91
2022-10-19T20:59:50.609Z,9.20
2022-10-19T21:02:19.058Z,9.25
2022-10-19T21:04:48.951Z,9.69
2022-10-19T21:07:17.481Z,9.05
2022-10-19T21:09:45.928Z,9.24
2022-10-19T21:12:14.346Z,9.69
2022-10-19T21:14:43.209Z,9.59
2022-10-19T21:17:11.339Z,10.12
2022-10-19T21:19:39.790Z,10.09
2022-10-19T21:22:14.015Z,9.77
2022-10-19T21:24:42.649Z,9.88
2022-10-19T21:27:11.312Z,9.91
2022-10-19T21:29:39.855Z,10.33
2022-10-19T21:32:08.284Z,10.37
2022-10-19T21:34:36.695Z,10.63
2022-10-19T21:37:05.237Z,10.64
2022-10-19T21:39:35.077Z,10.12
2022-10-19T21:42:03.781Z,10.55
2022-10-19T21:44:32.163Z,10.24
2022-10-19T21:47:03.721Z,9.72
2022-10-19T21:49:32.266Z,10.18
2022-10-19T21:52:03.620Z,10.24
2022-10-19T21:54:32.248Z,10.07
2022-10-19T21:57:03.151Z,9.76
2022-10-19T21:59:31.672Z,9.64
2022-10-19T22:02:00.200Z,9.56
2022-10-19T22:04:28.882Z,9.52
2022-10-19T22:06:59.612Z,9.72
2022-10-19T22:09:28.175Z,10.10
2022-10-19T22:11:56.587Z,9.97
2022-10-19T22:14:26.501Z,10.19
2022-10-19T22:16:56.145Z,9.95
2022-10-19T22:19:26.352Z,9.54
2022-10-19T22:21:57.525Z,9.86
2022-10-19T22:24:26.005Z,10.02
2022-10-19T22:26:54.437Z,9.93
2022-10-19T22:29:22.841Z,9.58
2022-10-19T22:31:52.690Z,9.33
2022-10-19T22:34:21.164Z,9.40
2022-10-19T22:36:49.730Z,9.34
2022-10-19T22:39:18.522Z,9.38
2022-10-19T22:41:46.648Z,9.59
2022-10-19T22:44:15.131Z,9.63
2022-10-19T22:46:43.557Z,9.85
2022-10-19T22:49:13.586Z,9.94
2022-10-19T22:51:42.189Z,9.51
2022-10-19T22:54:10.572Z,9.58
2022-10-19T22:56:39.061Z,9.38
2022-10-19T22:59:08.331Z,9.53
2022-10-19T23:01:38.258Z,9.44
2022-10-19T23:04:07.201Z,8.85
2022-10-19T23:06:36.673Z,9.53
2022-10-19T23:09:05.440Z,9.41
2022-10-19T23:11:33.562Z,9.47
2022-10-19T23:14:02.042Z,9.05
2022-10-19T23:16:30.476Z,9.19
2022-10-19T23:18:58.815Z,9.51
2022-10-19T23:21:27.248Z,9.45
2022-10-19T23:23:57.148Z,9.81
2022-10-19T23:26:26.095Z,9.40
2022-10-19T23:28:54.198Z,10.01
2022-10-19T23:31:25.103Z,9.34
2022-10-19T23:33:54.542Z,9.13
2022-10-19T23:36:24.622Z,9.23
2022-10-19T23:38:54.145Z,8.79
2022-10-19T23:41:24.146Z,9.39
2022-10-19T23:43:52.767Z,9.07
2022-10-19T23:46:21.368Z,9.37
2022-10-19T23:48:49.849Z,8.94
2022-10-19T23:51:20.560Z,9.34
2022-10-19T23:53:51.096Z,9.39
2022-10-19T23:56:21.566Z,9.49
2022-10-19T23:58:51.958Z,8.83
